createdAt,value
2019-03-22T00:00:46.128Z,73.43
2019-03-22T00:03:14.241Z,73.52
2019-03-22T00:05:42.248Z,74.21
2019-03-22T00:08:10.224Z,74.48
2019-03-22T00:10:38.298Z,75.30
2019-03-22T00:13:06.389Z,76.00
2019-03-22T00:15:34.432Z,76.40
2019-03-22T00:18:02.480Z,75.86
2019-03-22T00:20:30.638Z,76.58
2019-03-22T00:22:58.628Z,76.59
2019-03-22T00:25:26.710Z,77.10
2019-03-22T00:27:54.722Z,76.81
2019-03-22T00:30:22.653Z,76.65
2019-03-22T00:32:50.713Z,77.20
2019-03-22T00:35:18.783Z,77.96
2019-03-22T00:37:46.888Z,77.88
2019-03-22T00:40:14.986Z,78.66
2019-03-22T00:42:43.074Z,79.46
2019-03-22T00:45:11.518Z,79.75
2019-03-22T00:47:39.589Z,79.11
2019-03-22T00:50:07.679Z,78.53
2019-03-22T00:52:35.647Z,79.04
2019-03-22T00:55:04.020Z,79.99
2019-03-22T00:57:32.043Z,80.10
2019-03-22T00:59:59.992Z,79.41
2019-03-22T01:02:28.134Z,78.95
2019-03-22T01:04:56.130Z,79.21
2019-03-22T01:07:24.189Z,79.26
2019-03-22T01:09:52.186Z,78.78
2019-03-22T01:12:20.347Z,79.03
2019-03-22T01:14:48.451Z,78.64
2019-03-22T01:17:16.513Z,79.10
2019-03-22T01:19:44.669Z,78.90
2019-03-22T01:22:12.895Z,79.51
2019-03-22T01:24:40.946Z,79.43
2019-03-22T01:27:08.948Z,79.22
2019-03-22T01:29:37.021Z,79.48
2019-03-22T01:32:05.155Z,79.37
2019-03-22T01:34:33.221Z,80.90
2019-03-22T01:37:01.281Z,79.75
2019-03-22T01:39:29.376Z,80.06
2019-03-22T01:41:57.445Z,80.49
2019-03-22T01:44:25.567Z,80.06
2019-03-22T01:46:53.613Z,80.37
2019-03-22T01:49:21.908Z,80.46
2019-03-22T01:51:49.955Z,81.25
2019-03-22T01:54:18.062Z,81.70
2019-03-22T01:56:46.175Z,82.03
2019-03-22T01:59:14.110Z,82.21
2019-03-22T02:01:42.142Z,80.88
2019-03-22T02:04:10.183Z,79.50
2019-03-22T02:06:38.143Z,78.73
2019-03-22T02:09:07.988Z,78.97
2019-03-22T02:11:36.079Z,79.77
2019-03-22T02:14:04.402Z,80.04
2019-03-22T02:16:32.470Z,80.11
2019-03-22T02:19:00.543Z,79.61
2019-03-22T02:21:28.842Z,79.56
2019-03-22T02:23:56.891Z,80.07
2019-03-22T02:26:24.922Z,78.81
2019-03-22T02:28:53.499Z,80.07
2019-03-22T02:31:21.563Z,78.95
2019-03-22T02:33:49.738Z,79.38
2019-03-22T02:36:17.809Z,80.03
2019-03-22T02:38:46.423Z,79.95
2019-03-22T02:41:14.856Z,79.83
2019-03-22T02:43:42.883Z,79.52
2019-03-22T02:46:11.039Z,79.83
2019-03-22T02:48:39.126Z,79.61
2019-03-22T02:51:07.155Z,80.29
2019-03-22T02:53:35.173Z,80.11
2019-03-22T02:56:03.467Z,81.21
2019-03-22T02:58:31.711Z,81.97
2019-03-22T03:01:00.035Z,82.98
2019-03-22T03:03:28.005Z,83.44
2019-03-22T03:05:56.107Z,83.20
2019-03-22T03:08:24.130Z,84.94
2019-03-22T03:10:52.057Z,84.03
2019-03-22T03:13:20.093Z,83.98
2019-03-22T03:15:48.282Z,84.23
2019-03-22T03:18:16.429Z,83.87
2019-03-22T03:20:44.470Z,84.62
2019-03-22T03:23:12.523Z,84.69
2019-03-22T03:25:40.623Z,83.92
2019-03-22T03:28:08.581Z,84.46
2019-03-22T03:30:36.678Z,86.42
2019-03-22T03:33:04.745Z,87.08
2019-03-22T03:35:32.711Z,84.79
2019-03-22T03:38:00.779Z,83.68
2019-03-22T03:40:28.852Z,83.82
2019-03-22T03:42:56.901Z,84.21
2019-03-22T03:45:33.400Z,84.48
2019-03-22T03:48:02.211Z,84.33
2019-03-22T03:50:30.577Z,83.67
2019-03-22T03:52:58.593Z,83.59
2019-03-22T03:55:26.666Z,84.42
2019-03-22T03:57:54.704Z,84.98
2019-03-22T04:00:22.783Z,85.22
2019-03-22T04:02:50.852Z,84.26
2019-03-22T04:05:18.807Z,84.33
2019-03-22T04:07:46.852Z,85.08
2019-03-22T04:10:14.883Z,85.88
2019-03-22T04:12:42.801Z,86.44
2019-03-22T04:15:10.883Z,85.79
2019-03-22T04:17:39.002Z,85.25
2019-03-22T04:20:07.188Z,85.69
2019-03-22T04:22:36.497Z,85.96
2019-03-22T04:25:05.442Z,86.42
2019-03-22T04:27:33.461Z,87.73
2019-03-22T04:30:01.534Z,87.66
2019-03-22T04:32:29.477Z,86.08
2019-03-22T04:34:57.533Z,87.74
2019-03-22T04:37:25.574Z,86.75
2019-03-22T04:39:53.579Z,86.81
2019-03-22T04:42:21.637Z,87.44
2019-03-22T04:44:49.685Z,86.68
2019-03-22T04:47:20.139Z,85.04
2019-03-22T04:49:52.401Z,84.85
2019-03-22T04:52:23.308Z,85.63
2019-03-22T04:54:54.825Z,87.32
2019-03-22T04:57:24.134Z,86.20
2019-03-22T04:59:52.910Z,86.39
2019-03-22T05:02:22.155Z,84.14
2019-03-22T05:04:50.764Z,84.16
2019-03-22T05:07:19.290Z,84.21
2019-03-22T05:09:48.856Z,83.47
2019-03-22T05:12:19.423Z,84.72
2019-03-22T05:14:48.570Z,84.71
2019-03-22T05:17:17.752Z,84.57
2019-03-22T05:19:51.472Z,84.53
2019-03-22T05:22:22.199Z,83.58
2019-03-22T05:24:50.910Z,82.38
2019-03-22T05:27:20.370Z,82.22
2019-03-22T05:29:50.021Z,81.96
2019-03-22T05:32:18.772Z,79.42
2019-03-22T05:34:46.782Z,78.05
2019-03-22T05:37:14.990Z,80.00
2019-03-22T05:39:43.087Z,79.22
2019-03-22T05:42:11.323Z,76.16
2019-03-22T05:44:39.455Z,76.43
2019-03-22T05:47:07.455Z,77.85
2019-03-22T05:49:35.554Z,76.98
2019-03-22T05:52:03.696Z,75.41
2019-03-22T05:54:31.721Z,74.91
2019-03-22T05:56:59.867Z,73.12
2019-03-22T05:59:27.900Z,73.14
2019-03-22T06:01:55.901Z,73.56
2019-03-22T06:04:23.976Z,73.97
2019-03-22T06:06:52.045Z,74.76
2019-03-22T06:09:20.064Z,74.76
2019-03-22T06:11:48.063Z,74.85
2019-03-22T06:14:16.078Z,74.69
2019-03-22T06:16:44.220Z,76.04
2019-03-22T06:19:12.572Z,74.59
2019-03-22T06:21:40.807Z,74.52
2019-03-22T06:24:08.892Z,74.70
2019-03-22T06:26:36.976Z,75.79
2019-03-22T06:29:05.005Z,74.79
2019-03-22T06:31:33.042Z,74.14
2019-03-22T06:34:01.129Z,74.39
2019-03-22T06:36:29.303Z,75.60
2019-03-22T06:38:57.459Z,74.02
2019-03-22T06:41:25.649Z,73.93
2019-03-22T06:43:53.655Z,73.28
2019-03-22T06:46:21.940Z,72.33
2019-03-22T06:48:49.930Z,71.49
2019-03-22T06:51:17.983Z,71.59
2019-03-22T06:53:45.929Z,70.05
2019-03-22T06:56:13.949Z,69.77
2019-03-22T06:58:42.044Z,70.07
2019-03-22T07:01:10.023Z,70.06
2019-03-22T07:03:38.495Z,69.93
2019-03-22T07:06:06.498Z,70.03
2019-03-22T07:08:34.413Z,68.99
2019-03-22T07:11:02.535Z,67.66
2019-03-22T07:13:30.537Z,65.87
2019-03-22T07:15:58.533Z,66.26
2019-03-22T07:18:26.542Z,66.45
2019-03-22T07:20:54.612Z,66.32
2019-03-22T07:23:22.758Z,66.48
2019-03-22T07:25:50.745Z,66.49
2019-03-22T07:28:18.786Z,65.24
2019-03-22T07:30:46.918Z,65.25
2019-03-22T07:33:14.917Z,64.40
2019-03-22T07:35:42.957Z,63.74
2019-03-22T07:38:11.191Z,63.16
2019-03-22T07:40:39.353Z,63.39
2019-03-22T07:43:07.313Z,62.96
2019-03-22T07:45:35.358Z,62.61
2019-03-22T07:48:03.463Z,62.63
2019-03-22T07:50:31.456Z,62.75
2019-03-22T07:52:59.501Z,61.96
2019-03-22T07:55:27.505Z,61.65
2019-03-22T07:57:56.881Z,60.79
2019-03-22T08:00:30.684Z,59.17
2019-03-22T08:02:54.848Z,57.97
2019-03-22T08:05:22.984Z,58.81
2019-03-22T08:07:51.070Z,59.67
2019-03-22T08:10:18.986Z,59.40
2019-03-22T08:12:47.122Z,59.43
2019-03-22T08:15:28.967Z,59.58
2019-03-22T08:17:57.320Z,59.84
2019-03-22T08:20:25.814Z,58.74
2019-03-22T08:22:53.871Z,55.96
2019-03-22T08:25:21.926Z,54.26
2019-03-22T08:27:50.122Z,53.85
2019-03-22T08:30:18.013Z,53.38
2019-03-22T08:32:46.089Z,52.50
2019-03-22T08:35:14.072Z,53.71
2019-03-22T08:37:51.956Z,54.47
2019-03-22T08:40:12.595Z,54.38
2019-03-22T08:42:40.586Z,52.25
2019-03-22T08:45:11.293Z,51.11
2019-03-22T08:47:39.428Z,49.54
2019-03-22T08:50:07.591Z,50.02
2019-03-22T08:52:35.667Z,49.09
2019-03-22T08:55:03.751Z,49.61
2019-03-22T08:57:33.279Z,49.35
2019-03-22T09:00:01.272Z,49.17
2019-03-22T09:02:29.303Z,49.59
2019-03-22T09:04:57.454Z,49.72
2019-03-22T09:07:25.472Z,48.89
2019-03-22T09:09:53.516Z,49.10
2019-03-22T09:12:21.568Z,49.24
2019-03-22T09:14:49.576Z,48.14
2019-03-22T09:17:17.655Z,46.90
2019-03-22T09:19:45.711Z,46.47
2019-03-22T09:22:13.719Z,46.39
2019-03-22T09:24:41.962Z,45.90
2019-03-22T09:27:09.931Z,45.42
2019-03-22T09:29:38.003Z,44.87
2019-03-22T09:32:06.074Z,43.60
2019-03-22T09:34:34.392Z,43.35
2019-03-22T09:37:02.534Z,43.40
2019-03-22T09:39:30.560Z,42.67
2019-03-22T09:41:58.690Z,43.53
2019-03-22T09:44:28.352Z,43.52
2019-03-22T09:46:56.661Z,42.90
2019-03-22T09:49:24.971Z,42.57
2019-03-22T09:51:55.221Z,42.55
2019-03-22T09:54:23.141Z,42.21
2019-03-22T09:56:51.258Z,43.42
2019-03-22T09:59:19.471Z,44.28
2019-03-22T10:01:47.600Z,43.79
2019-03-22T10:04:16.897Z,42.93
2019-03-22T10:06:45.129Z,42.66
2019-03-22T10:09:13.179Z,43.61
2019-03-22T10:11:41.497Z,43.32
2019-03-22T10:14:09.584Z,43.57
2019-03-22T10:16:37.677Z,43.65
2019-03-22T10:19:05.686Z,43.76
2019-03-22T10:21:33.786Z,44.37
2019-03-22T10:24:02.138Z,44.60
2019-03-22T10:26:30.332Z,43.90
2019-03-22T10:28:58.536Z,42.80
2019-03-22T10:31:36.590Z,43.15
2019-03-22T10:33:56.628Z,44.13
2019-03-22T10:36:24.735Z,43.67
2019-03-22T10:38:52.672Z,43.80
2019-03-22T10:41:20.756Z,42.22
2019-03-22T10:43:48.841Z,42.40
2019-03-22T10:46:17.136Z,42.27
2019-03-22T10:48:45.339Z,42.64
2019-03-22T10:51:13.429Z,42.86
2019-03-22T10:53:41.457Z,43.78
2019-03-22T10:56:09.574Z,43.54
2019-03-22T10:58:37.698Z,43.33
2019-03-22T11:01:08.295Z,42.61
2019-03-22T11:03:35.922Z,42.16
2019-03-22T11:06:04.061Z,42.06
2019-03-22T11:08:32.084Z,41.29
2019-03-22T11:11:00.120Z,41.32
2019-03-22T11:13:28.128Z,41.14
2019-03-22T11:15:56.158Z,40.91
2019-03-22T11:18:24.168Z,40.40
2019-03-22T11:20:52.421Z,40.18
2019-03-22T11:23:20.514Z,40.18
2019-03-22T11:25:48.916Z,39.56
2019-03-22T11:28:17.112Z,38.73
2019-03-22T11:30:45.254Z,39.56
2019-03-22T11:33:13.350Z,39.10
2019-03-22T11:35:41.341Z,38.67
2019-03-22T11:38:09.404Z,38.37
2019-03-22T11:40:37.531Z,37.94
2019-03-22T11:43:08.833Z,38.03
2019-03-22T11:45:35.764Z,37.84
2019-03-22T11:48:03.986Z,37.38
2019-03-22T11:50:32.157Z,38.09
2019-03-22T11:53:00.287Z,37.82
2019-03-22T11:55:28.406Z,36.85
2019-03-22T11:57:56.492Z,36.73
2019-03-22T12:00:25.350Z,36.36
2019-03-22T12:02:53.460Z,36.52
2019-03-22T12:05:21.910Z,36.52
2019-03-22T12:07:49.992Z,36.15
2019-03-22T12:10:19.026Z,36.09
2019-03-22T12:12:47.224Z,35.89
2019-03-22T12:15:17.511Z,35.33
2019-03-22T12:17:45.565Z,35.80
2019-03-22T12:20:14.372Z,35.19
2019-03-22T12:22:42.542Z,35.30
2019-03-22T12:25:13.322Z,35.29
2019-03-22T12:27:41.465Z,35.82
2019-03-22T12:30:14.231Z,35.49
2019-03-22T12:32:42.431Z,35.40
2019-03-22T12:35:10.860Z,35.84
2019-03-22T12:37:38.949Z,35.76
2019-03-22T12:40:07.657Z,36.29
2019-03-22T12:42:35.589Z,36.25
2019-03-22T12:45:05.543Z,36.25
2019-03-22T12:47:33.680Z,36.23
2019-03-22T12:50:01.700Z,35.50
2019-03-22T12:52:31.356Z,35.20
2019-03-22T12:54:59.476Z,35.02
2019-03-22T12:57:27.604Z,34.30
2019-03-22T12:59:55.581Z,34.25
2019-03-22T13:02:23.627Z,32.00
2019-03-22T13:04:51.725Z,31.58
2019-03-22T13:07:19.865Z,31.62
2019-03-22T13:09:48.789Z,32.09
2019-03-22T13:12:17.394Z,33.24
2019-03-22T13:14:45.466Z,32.92
2019-03-22T13:17:13.547Z,32.55
2019-03-22T13:19:41.562Z,31.24
2019-03-22T13:22:09.567Z,31.54
2019-03-22T13:24:37.628Z,31.62
2019-03-22T13:27:05.827Z,31.44
2019-03-22T13:29:33.941Z,31.83
2019-03-22T13:32:02.110Z,31.23
2019-03-22T13:34:30.113Z,31.21
2019-03-22T13:36:58.214Z,30.79
2019-03-22T13:39:26.538Z,30.16
2019-03-22T13:41:54.528Z,29.33
2019-03-22T13:44:22.554Z,28.99
2019-03-22T13:46:50.745Z,28.65
2019-03-22T13:49:18.875Z,29.35
2019-03-22T13:51:46.916Z,29.10
2019-03-22T13:54:15.845Z,29.74
2019-03-22T13:56:43.789Z,29.24
2019-03-22T13:59:11.843Z,29.15
2019-03-22T14:01:39.965Z,29.42
2019-03-22T14:04:08.130Z,29.79
2019-03-22T14:06:36.150Z,29.20
2019-03-22T14:09:06.572Z,28.78
2019-03-22T14:11:34.631Z,28.96
2019-03-22T14:14:02.709Z,29.40
2019-03-22T14:16:30.727Z,29.35
2019-03-22T14:19:00.050Z,29.35
2019-03-22T14:21:28.231Z,29.42
2019-03-22T14:23:56.233Z,29.49
2019-03-22T14:26:24.429Z,28.87
2019-03-22T14:28:52.450Z,28.53
2019-03-22T14:31:20.500Z,28.46
2019-03-22T14:33:48.537Z,28.53
2019-03-22T14:36:16.638Z,28.42
2019-03-22T14:38:44.690Z,29.11
2019-03-22T14:41:12.665Z,28.12
2019-03-22T14:43:40.712Z,27.00
2019-03-22T14:46:08.788Z,27.12
2019-03-22T14:48:36.741Z,27.84
2019-03-22T14:51:04.812Z,26.86
2019-03-22T14:53:32.893Z,26.99
2019-03-22T14:56:01.695Z,27.39
2019-03-22T14:58:29.674Z,26.59
2019-03-22T15:00:57.677Z,27.39
2019-03-22T15:03:28.587Z,28.69
2019-03-22T15:05:57.622Z,28.72
2019-03-22T15:08:25.767Z,29.09
2019-03-22T15:10:55.921Z,29.45
2019-03-22T15:13:32.112Z,30.37
2019-03-22T15:16:18.151Z,31.03
2019-03-22T15:19:05.694Z,31.14
2019-03-22T15:21:52.397Z,31.54
2019-03-22T15:24:48.968Z,31.85
2019-03-22T15:27:35.003Z,32.08
2019-03-22T15:30:30.298Z,32.57
2019-03-22T15:33:34.217Z,32.68
2019-03-22T15:36:07.778Z,33.22
2019-03-22T15:39:00.287Z,33.31
2019-03-22T15:41:28.564Z,33.59
2019-03-22T15:43:56.595Z,33.90
2019-03-22T15:46:24.678Z,33.90
2019-03-22T15:48:52.714Z,33.86
2019-03-22T15:51:20.727Z,33.71
2019-03-22T15:53:48.822Z,33.69
2019-03-22T15:56:17.074Z,33.86
2019-03-22T15:58:45.097Z,33.90
2019-03-22T16:01:13.170Z,34.27
2019-03-22T16:03:44.361Z,34.56
2019-03-22T16:06:11.743Z,34.67
2019-03-22T16:08:39.757Z,34.84
2019-03-22T16:11:07.826Z,35.11
2019-03-22T16:13:36.338Z,35.03
2019-03-22T16:16:05.237Z,35.21
2019-03-22T16:18:34.396Z,35.36
2019-03-22T16:21:03.795Z,35.39
2019-03-22T16:23:32.455Z,35.69
2019-03-22T16:26:00.973Z,36.02
2019-03-22T16:28:29.834Z,36.33
2019-03-22T16:30:58.950Z,36.62
2019-03-22T16:33:27.302Z,36.75
2019-03-22T16:35:55.414Z,37.09
2019-03-22T16:38:23.481Z,37.27
2019-03-22T16:40:51.642Z,37.47
2019-03-22T16:43:19.667Z,37.84
2019-03-22T16:45:47.685Z,37.77
2019-03-22T16:48:15.799Z,37.86
2019-03-22T16:50:43.967Z,38.08
2019-03-22T16:53:12.129Z,38.27
2019-03-22T16:55:41.140Z,38.59
2019-03-22T16:58:11.420Z,38.91
2019-03-22T17:00:40.260Z,38.12
2019-03-22T17:03:09.764Z,38.54
2019-03-22T17:05:38.443Z,38.05
2019-03-22T17:08:08.233Z,37.90
2019-03-22T17:10:36.533Z,38.02
2019-03-22T17:13:05.725Z,38.17
2019-03-22T17:15:35.047Z,38.17
2019-03-22T17:18:04.487Z,38.31
2019-03-22T17:20:34.519Z,38.47
2019-03-22T17:23:03.543Z,38.41
2019-03-22T17:25:32.270Z,38.46
2019-03-22T17:28:00.951Z,38.67
2019-03-22T17:30:29.103Z,38.55
2019-03-22T17:32:58.211Z,38.77
2019-03-22T17:35:31.779Z,38.85
2019-03-22T17:38:00.539Z,38.83
2019-03-22T17:40:29.227Z,38.82
2019-03-22T17:42:58.029Z,38.96
2019-03-22T17:45:27.769Z,39.04
2019-03-22T17:47:57.822Z,39.02
2019-03-22T17:50:27.531Z,39.06
2019-03-22T17:52:56.876Z,39.38
2019-03-22T17:55:26.444Z,39.24
2019-03-22T17:57:55.213Z,39.34
2019-03-22T18:00:25.137Z,39.91
2019-03-22T18:02:53.871Z,39.66
2019-03-22T18:05:22.240Z,40.01
2019-03-22T18:07:51.201Z,39.99
2019-03-22T18:10:19.541Z,40.20
2019-03-22T18:12:47.890Z,40.34
2019-03-22T18:15:16.275Z,40.52
2019-03-22T18:17:45.017Z,40.47
2019-03-22T18:20:13.590Z,40.58
2019-03-22T18:22:41.873Z,40.79
2019-03-22T18:25:11.099Z,41.14
2019-03-22T18:27:39.844Z,40.92
2019-03-22T18:30:08.912Z,41.04
2019-03-22T18:32:37.363Z,40.43
2019-03-22T18:35:06.471Z,40.66
2019-03-22T18:37:35.352Z,41.01
2019-03-22T18:40:07.417Z,41.16
2019-03-22T18:42:35.520Z,41.50
2019-03-22T18:45:04.265Z,40.66
2019-03-22T18:47:32.248Z,40.79
2019-03-22T18:50:00.303Z,40.85
2019-03-22T18:52:28.738Z,41.01
2019-03-22T18:54:56.736Z,41.00
2019-03-22T18:57:24.725Z,40.98
2019-03-22T18:59:52.688Z,40.93
2019-03-22T19:02:20.805Z,41.10
2019-03-22T19:04:48.877Z,41.18
2019-03-22T19:07:16.813Z,41.31
2019-03-22T19:09:44.969Z,41.48
2019-03-22T19:12:12.975Z,41.58
2019-03-22T19:14:40.999Z,41.97
2019-03-22T19:17:09.031Z,42.14
2019-03-22T19:19:36.976Z,42.46
2019-03-22T19:22:05.154Z,42.77
2019-03-22T19:24:33.273Z,42.91
2019-03-22T19:27:01.305Z,43.27
2019-03-22T19:29:29.597Z,43.54
2019-03-22T19:31:57.657Z,43.17
2019-03-22T19:34:25.715Z,42.38
2019-03-22T19:36:53.777Z,42.31
2019-03-22T19:39:21.743Z,42.30
2019-03-22T19:41:50.534Z,42.16
2019-03-22T19:44:18.507Z,42.00
2019-03-22T19:46:46.879Z,42.22
2019-03-22T19:49:14.943Z,42.62
2019-03-22T19:51:43.105Z,42.12
2019-03-22T19:54:11.315Z,42.55
2019-03-22T19:56:39.291Z,42.97
2019-03-22T19:59:07.334Z,42.67
2019-03-22T20:01:35.304Z,42.86
2019-03-22T20:04:04.455Z,42.97
2019-03-22T20:06:32.543Z,43.50
2019-03-22T20:09:01.006Z,44.49
2019-03-22T20:11:29.295Z,44.51
2019-03-22T20:13:57.930Z,44.24
2019-03-22T20:16:25.870Z,44.14
2019-03-22T20:18:53.891Z,44.32
2019-03-22T20:21:22.553Z,45.15
2019-03-22T20:23:53.807Z,44.89
2019-03-22T20:26:20.813Z,44.52
2019-03-22T20:28:51.178Z,44.54
2019-03-22T20:31:19.377Z,44.42
2019-03-22T20:33:47.885Z,44.27
2019-03-22T20:36:16.186Z,44.11
2019-03-22T20:38:44.659Z,44.67
2019-03-22T20:41:13.637Z,44.99
2019-03-22T20:43:41.572Z,45.02
2019-03-22T20:46:10.342Z,45.46
2019-03-22T20:48:38.741Z,46.33
2019-03-22T20:51:07.116Z,46.01
2019-03-22T20:53:35.163Z,45.91
2019-03-22T20:56:04.209Z,46.25
2019-03-22T20:58:32.285Z,46.46
2019-03-22T21:01:00.237Z,46.65
2019-03-22T21:03:28.290Z,46.57
2019-03-22T21:05:56.344Z,46.92
2019-03-22T21:08:24.410Z,47.65
2019-03-22T21:10:52.420Z,48.05
2019-03-22T21:13:20.370Z,48.46
2019-03-22T21:15:52.718Z,49.23
2019-03-22T21:18:20.710Z,48.94
2019-03-22T21:20:48.731Z,49.49
2019-03-22T21:23:16.758Z,49.87
2019-03-22T21:25:44.929Z,50.37
2019-03-22T21:28:12.940Z,50.58
2019-03-22T21:30:40.927Z,51.13
2019-03-22T21:33:08.853Z,51.69
2019-03-22T21:35:37.747Z,51.78
2019-03-22T21:38:10.896Z,52.48
2019-03-22T21:40:35.758Z,53.09
2019-03-22T21:43:03.931Z,54.31
2019-03-22T21:45:31.879Z,53.84
2019-03-22T21:48:00.004Z,53.32
2019-03-22T21:50:27.969Z,52.63
2019-03-22T21:52:55.935Z,52.47
2019-03-22T21:55:23.928Z,52.23
2019-03-22T21:57:51.906Z,53.26
2019-03-22T22:00:19.901Z,52.86
2019-03-22T22:02:47.844Z,53.91
2019-03-22T22:05:15.813Z,54.22
2019-03-22T22:07:43.790Z,53.90
2019-03-22T22:10:11.754Z,53.17
2019-03-22T22:12:39.780Z,52.31
2019-03-22T22:15:09.790Z,53.10
2019-03-22T22:17:39.336Z,53.20
2019-03-22T22:20:08.034Z,53.18
2019-03-22T22:22:36.420Z,53.71
2019-03-22T22:25:04.651Z,53.44
2019-03-22T22:27:32.826Z,53.54
2019-03-22T22:30:00.850Z,53.64
2019-03-22T22:32:29.401Z,54.38
2019-03-22T22:34:57.349Z,54.08
2019-03-22T22:37:25.335Z,53.06
2019-03-22T22:39:53.318Z,53.73
2019-03-22T22:42:21.307Z,53.77
2019-03-22T22:44:49.300Z,53.60
2019-03-22T22:47:17.243Z,53.65
2019-03-22T22:49:53.770Z,53.88
2019-03-22T22:52:24.635Z,53.96
2019-03-22T22:54:52.555Z,55.31
2019-03-22T22:57:20.532Z,54.12
2019-03-22T22:59:48.600Z,54.84
2019-03-22T23:02:16.594Z,55.32
2019-03-22T23:04:44.636Z,55.88
2019-03-22T23:07:12.677Z,56.02
2019-03-22T23:09:40.708Z,55.62
2019-03-22T23:12:08.653Z,54.29
2019-03-22T23:14:36.801Z,54.59
2019-03-22T23:17:04.905Z,54.86
2019-03-22T23:19:32.802Z,56.03
2019-03-22T23:22:00.975Z,56.64
2019-03-22T23:24:28.948Z,57.07
2019-03-22T23:26:57.044Z,55.72
2019-03-22T23:29:25.731Z,55.39
2019-03-22T23:32:00.236Z,55.56
2019-03-22T23:34:28.505Z,54.98
2019-03-22T23:36:56.447Z,55.05
2019-03-22T23:39:24.436Z,55.64
2019-03-22T23:41:52.522Z,56.06
2019-03-22T23:44:20.431Z,56.42
2019-03-22T23:46:48.519Z,56.85
2019-03-22T23:49:16.579Z,56.93
2019-03-22T23:51:44.624Z,56.26
2019-03-22T23:54:12.621Z,55.28
2019-03-22T23:56:40.640Z,55.01
2019-03-22T23:59:08.571Z,54.64
